Time;durP1;ratioP1;P1;durP2;ratioP2;P2;SDS_P1;SDS_P2;PMS_P1;PMS_P2;Temp;Humidity;BMP_temperature;BMP_pressure;BME280_temperature;BME280_humidity;BME280_pressure;Samples;Min_cycle;Max_cycle;Signal;HPM_P1;HPM_P2
2021/06/22 00:01:59;;;;;;;;;;;27.90;59.80;;;;;;5144828;27;19967;-56
2021/06/22 00:04:26;;;;;;;;;;;27.90;59.80;;;;;;5126139;27;19966;-55
2021/06/22 00:06:53;;;;;;;;;;;27.90;59.80;;;;;;5145733;27;20439;-56
2021/06/22 00:09:20;;;;;;;;;;;27.90;59.80;;;;;;5137711;27;19924;-56
2021/06/22 00:11:47;;;;;;;;;;;27.90;59.80;;;;;;5135381;27;19927;-55
2021/06/22 00:14:14;;;;;;;;;;;27.90;59.90;;;;;;5140453;27;19923;-54
2021/06/22 00:16:41;;;;;;;;;;;27.90;59.90;;;;;;5134073;27;19928;-53
2021/06/22 00:19:09;;;;;;;;;;;27.90;59.90;;;;;;5152363;27;19931;-55
2021/06/22 00:21:36;;;;;;;;;;;27.90;59.80;;;;;;5134043;27;19972;-56
2021/06/22 00:24:03;;;;;;;;;;;27.90;59.90;;;;;;5152149;27;19976;-55
2021/06/22 00:26:30;;;;;;;;;;;27.90;59.90;;;;;;5135336;27;19976;-56
2021/06/22 00:28:56;;;;;;;;;;;27.90;59.90;;;;;;5154746;27;19972;-54
2021/06/22 00:31:23;;;;;;;;;;;27.90;59.90;;;;;;5152432;27;19924;-55
2021/06/22 00:33:50;;;;;;;;;;;27.90;59.90;;;;;;5152784;27;19927;-53
2021/06/22 00:36:17;;;;;;;;;;;27.90;59.90;;;;;;5117509;27;19978;-55
2021/06/22 00:38:44;;;;;;;;;;;27.90;59.90;;;;;;5132279;27;19979;-54
2021/06/22 00:41:11;;;;;;;;;;;27.90;59.90;;;;;;5152145;27;19948;-57
2021/06/22 00:43:39;;;;;;;;;;;27.90;59.90;;;;;;5153471;27;19973;-53
2021/06/22 00:46:06;;;;;;;;;;;27.90;59.90;;;;;;5152379;27;20386;-54
2021/06/22 00:48:33;;;;;;;;;;;27.90;59.90;;;;;;5151645;27;19923;-55
2021/06/22 00:51:00;;;;;;;;;;;27.90;59.90;;;;;;5151946;27;20002;-53
2021/06/22 00:53:27;;;;;;;;;;;27.90;59.90;;;;;;5141483;27;20435;-56
2021/06/22 00:55:55;;;;;;;;;;;27.90;59.90;;;;;;5145914;27;19924;-54
2021/06/22 00:58:22;;;;;;;;;;;27.90;59.90;;;;;;5146089;27;20123;-54
2021/06/22 01:00:49;;;;;;;;;;;27.90;59.90;;;;;;5137057;27;19924;-56
2021/06/22 01:03:16;;;;;;;;;;;27.90;59.80;;;;;;5137361;27;19990;-55
2021/06/22 01:05:44;;;;;;;;;;;27.90;59.90;;;;;;5141299;27;20331;-51
2021/06/22 01:08:12;;;;;;;;;;;27.90;59.80;;;;;;5152497;27;20009;-54
2021/06/22 01:10:39;;;;;;;;;;;27.90;59.90;;;;;;5148317;27;19923;-54
2021/06/22 01:13:06;;;;;;;;;;;27.90;59.90;;;;;;5139217;27;19931;-55
2021/06/22 01:15:33;;;;;;;;;;;27.90;59.80;;;;;;5150511;27;19927;-54
2021/06/22 01:18:01;;;;;;;;;;;27.90;59.90;;;;;;5152714;27;19923;-56
2021/06/22 01:20:32;;;;;;;;;;;27.90;59.90;;;;;;5152181;27;19923;-56
2021/06/22 01:23:03;;;;;;;;;;;27.90;59.90;;;;;;5136335;27;19959;-56
2021/06/22 01:25:30;;;;;;;;;;;27.90;59.90;;;;;;5134604;27;19924;-55
2021/06/22 01:27:57;;;;;;;;;;;27.90;59.80;;;;;;5142193;27;19958;-56
2021/06/22 01:30:25;;;;;;;;;;;27.90;59.90;;;;;;5151924;27;19930;-51
2021/06/22 01:32:52;;;;;;;;;;;27.80;59.80;;;;;;5152182;27;19931;-56
2021/06/22 01:35:20;;;;;;;;;;;27.90;59.80;;;;;;5136625;27;19965;-54
2021/06/22 01:37:50;;;;;;;;;;;27.90;59.80;;;;;;5148842;27;19976;-54
2021/06/22 01:40:17;;;;;;;;;;;27.80;59.70;;;;;;5151381;27;19931;-56
2021/06/22 01:42:45;;;;;;;;;;;27.90;59.80;;;;;;5152553;27;19924;-54
2021/06/22 01:45:12;;;;;;;;;;;27.90;59.80;;;;;;5139940;27;19924;-55
2021/06/22 01:47:40;;;;;;;;;;;27.90;59.80;;;;;;5148049;27;20002;-56
2021/06/22 01:50:08;;;;;;;;;;;27.80;59.70;;;;;;5151309;27;20290;-52
2021/06/22 01:52:35;;;;;;;;;;;27.90;59.80;;;;;;5152267;27;19977;-52
2021/06/22 01:57:49;;;;;;;;;;;27.80;59.60;;;;;;5151219;27;20339;-53
2021/06/22 02:00:16;;;;;;;;;;;27.80;59.70;;;;;;5152196;27;20022;-56
2021/06/22 02:02:44;;;;;;;;;;;27.80;59.60;;;;;;5155822;27;19966;-56
2021/06/22 02:05:11;;;;;;;;;;;27.80;59.60;;;;;;5154833;27;19923;-53
2021/06/22 02:07:39;;;;;;;;;;;27.80;59.60;;;;;;5154984;27;19963;-55
2021/06/22 02:10:06;;;;;;;;;;;27.80;59.60;;;;;;5131066;27;19923;-56
2021/06/22 02:12:33;;;;;;;;;;;27.80;59.60;;;;;;5143369;27;19934;-55
2021/06/22 02:15:01;;;;;;;;;;;27.80;59.60;;;;;;5153706;27;20364;-57
2021/06/22 02:17:28;;;;;;;;;;;27.80;59.60;;;;;;5154126;27;20394;-54
2021/06/22 02:19:55;;;;;;;;;;;27.80;59.60;;;;;;5153652;27;19982;-52
2021/06/22 02:22:22;;;;;;;;;;;27.80;59.60;;;;;;5154634;27;19970;-52
2021/06/22 02:24:49;;;;;;;;;;;27.80;59.50;;;;;;5155651;27;19979;-56
2021/06/22 02:27:29;;;;;;;;;;;27.80;59.50;;;;;;5152826;27;19967;-55
2021/06/22 02:29:56;;;;;;;;;;;27.80;59.50;;;;;;5138925;27;20343;-54
2021/06/22 02:32:24;;;;;;;;;;;27.80;59.50;;;;;;5154984;27;19927;-54
2021/06/22 02:34:51;;;;;;;;;;;27.80;59.50;;;;;;5136419;27;19929;-57
2021/06/22 02:37:18;;;;;;;;;;;27.80;59.50;;;;;;5154635;27;19927;-56
2021/06/22 02:39:46;;;;;;;;;;;27.80;59.50;;;;;;5156107;27;19936;-56
2021/06/22 02:42:14;;;;;;;;;;;27.80;59.50;;;;;;5155527;27;20021;-56
2021/06/22 02:44:41;;;;;;;;;;;27.80;60.10;;;;;;5147552;27;20001;-55
2021/06/22 02:47:07;;;;;;;;;;;27.80;59.50;;;;;;5134907;27;20017;-55
2021/06/22 02:49:35;;;;;;;;;;;27.80;59.40;;;;;;5140233;27;19930;-55
2021/06/22 02:52:05;;;;;;;;;;;27.80;59.40;;;;;;5138560;27;19924;-53
2021/06/22 02:54:37;;;;;;;;;;;27.80;59.50;;;;;;5136635;27;20015;-56
2021/06/22 02:57:05;;;;;;;;;;;27.80;59.40;;;;;;5137043;27;19972;-53
2021/06/22 02:59:32;;;;;;;;;;;27.80;59.40;;;;;;5150700;27;20121;-55
2021/06/22 03:01:59;;;;;;;;;;;27.80;59.40;;;;;;5151950;27;19969;-54
2021/06/22 03:04:26;;;;;;;;;;;27.80;60.00;;;;;;5153638;27;20413;-56
2021/06/22 03:06:53;;;;;;;;;;;27.80;59.40;;;;;;5154886;27;19998;-56
2021/06/22 03:09:20;;;;;;;;;;;27.80;59.40;;;;;;5155209;27;20022;-54
2021/06/22 03:11:48;;;;;;;;;;;27.80;59.40;;;;;;5153794;27;19976;-53
2021/06/22 03:14:15;;;;;;;;;;;27.80;59.40;;;;;;5153556;27;19948;-56
2021/06/22 03:16:42;;;;;;;;;;;27.80;59.40;;;;;;5153541;27;20027;-51
2021/06/22 03:19:09;;;;;;;;;;;27.80;59.40;;;;;;5153723;27;19923;-56
2021/06/22 03:21:36;;;;;;;;;;;27.80;59.30;;;;;;5133845;27;19923;-55
2021/06/22 03:24:03;;;;;;;;;;;27.80;59.30;;;;;;5154583;27;19987;-54
2021/06/22 03:26:30;;;;;;;;;;;27.80;59.30;;;;;;5154023;27;20093;-53
2021/06/22 03:28:57;;;;;;;;;;;27.80;59.30;;;;;;5154529;27;20082;-56
2021/06/22 03:31:24;;;;;;;;;;;27.80;59.30;;;;;;5135230;27;20421;-55
2021/06/22 03:33:52;;;;;;;;;;;27.80;59.30;;;;;;5154411;27;19989;-54
2021/06/22 03:36:18;;;;;;;;;;;27.80;59.30;;;;;;5136272;27;19963;-56
2021/06/22 03:38:46;;;;;;;;;;;27.80;59.30;;;;;;5154659;27;20293;-53
2021/06/22 03:41:13;;;;;;;;;;;27.80;59.20;;;;;;5136061;27;19928;-54
2021/06/22 03:43:40;;;;;;;;;;;27.80;59.20;;;;;;5152681;27;19978;-57
2021/06/22 03:46:07;;;;;;;;;;;27.80;59.20;;;;;;5153801;27;19969;-56
2021/06/22 03:48:34;;;;;;;;;;;27.80;59.20;;;;;;5152557;27;20393;-55
2021/06/22 03:51:01;;;;;;;;;;;27.80;59.10;;;;;;5152562;27;19966;-55
2021/06/22 03:53:28;;;;;;;;;;;27.80;59.10;;;;;;5152546;27;20417;-55
2021/06/22 03:55:55;;;;;;;;;;;27.80;59.10;;;;;;5152857;27;19985;-56
2021/06/22 03:58:23;;;;;;;;;;;27.80;59.10;;;;;;5142495;27;19924;-54
2021/06/22 04:00:50;;;;;;;;;;;27.80;59.00;;;;;;5145649;27;19934;-52
2021/06/22 04:03:17;;;;;;;;;;;27.80;59.60;;;;;;5151276;27;19923;-54
2021/06/22 04:05:44;;;;;;;;;;;27.90;59.00;;;;;;5151165;27;19924;-56
2021/06/22 04:08:11;;;;;;;;;;;27.90;59.00;;;;;;5154041;27;19927;-54
2021/06/22 04:10:38;;;;;;;;;;;27.80;58.90;;;;;;5153025;27;20014;-54
2021/06/22 04:13:05;;;;;;;;;;;27.90;59.00;;;;;;5151277;27;19962;-55
2021/06/22 04:15:32;;;;;;;;;;;27.90;59.00;;;;;;5135436;27;19927;-57
2021/06/22 04:18:09;;;;;;;;;;;27.90;58.90;;;;;;5150851;27;20397;-55
2021/06/22 04:20:36;;;;;;;;;;;27.90;58.80;;;;;;5150938;27;19945;-55
2021/06/22 04:23:04;;;;;;;;;;;27.90;58.60;;;;;;5151642;27;19981;-55
2021/06/22 04:25:31;;;;;;;;;;;28.00;58.50;;;;;;5151077;27;19988;-56
2021/06/22 04:28:00;;;;;;;;;;;28.10;58.50;;;;;;5143814;27;19982;-55
2021/06/22 04:30:26;;;;;;;;;;;28.10;58.40;;;;;;5141877;27;19945;-56
2021/06/22 04:32:53;;;;;;;;;;;28.10;58.30;;;;;;5154815;27;19927;-53
2021/06/22 04:35:20;;;;;;;;;;;28.10;58.20;;;;;;5135303;27;19923;-54
2021/06/22 04:37:48;;;;;;;;;;;28.10;58.10;;;;;;5153495;27;20271;-57
2021/06/22 04:40:15;;;;;;;;;;;28.20;58.10;;;;;;5154270;27;20038;-57
2021/06/22 04:42:42;;;;;;;;;;;28.20;58.00;;;;;;5136344;27;19923;-56
2021/06/22 04:45:09;;;;;;;;;;;28.20;57.90;;;;;;5135569;27;19984;-55
2021/06/22 04:47:36;;;;;;;;;;;28.30;58.00;;;;;;5136057;27;19967;-57
2021/06/22 04:50:04;;;;;;;;;;;28.30;57.80;;;;;;5150972;27;19934;-56
2021/06/22 04:52:31;;;;;;;;;;;28.30;57.70;;;;;;5151649;27;19955;-52
2021/06/22 04:54:58;;;;;;;;;;;28.40;57.60;;;;;;5151696;27;19923;-55
2021/06/22 04:57:25;;;;;;;;;;;28.40;57.50;;;;;;5151628;27;19923;-56
2021/06/22 04:59:52;;;;;;;;;;;28.40;57.40;;;;;;5152844;27;19923;-54
2021/06/22 05:02:20;;;;;;;;;;;28.50;57.50;;;;;;5152888;27;20343;-57
2021/06/22 05:04:47;;;;;;;;;;;28.50;57.50;;;;;;5151777;27;19927;-56
2021/06/22 05:07:14;;;;;;;;;;;28.50;57.40;;;;;;5151819;27;19974;-55
2021/06/22 05:09:41;;;;;;;;;;;28.60;57.40;;;;;;5151503;27;19923;-55
2021/06/22 05:12:08;;;;;;;;;;;28.60;57.40;;;;;;5151407;27;19927;-56
2021/06/22 05:14:35;;;;;;;;;;;28.60;57.30;;;;;;5151695;27;20358;-55
2021/06/22 05:17:02;;;;;;;;;;;28.60;57.30;;;;;;5152585;27;19927;-56
2021/06/22 05:19:29;;;;;;;;;;;28.60;57.20;;;;;;5150806;27;19931;-55
2021/06/22 05:21:56;;;;;;;;;;;28.70;57.20;;;;;;5152756;27;19973;-55
2021/06/22 05:24:23;;;;;;;;;;;28.70;57.10;;;;;;5135007;27;19975;-58
2021/06/22 05:26:50;;;;;;;;;;;28.70;57.10;;;;;;5151506;27;19970;-55
2021/06/22 05:29:17;;;;;;;;;;;28.70;57.10;;;;;;5154766;27;19948;-56
2021/06/22 05:31:44;;;;;;;;;;;28.70;57.00;;;;;;5138550;27;19923;-58
2021/06/22 05:34:11;;;;;;;;;;;28.70;57.00;;;;;;5152444;27;20015;-57
2021/06/22 05:36:38;;;;;;;;;;;28.70;57.00;;;;;;5155327;27;19923;-58
2021/06/22 05:39:05;;;;;;;;;;;28.80;57.00;;;;;;5154363;27;19924;-56
2021/06/22 05:41:35;;;;;;;;;;;28.80;56.90;;;;;;5140221;27;19923;-56
2021/06/22 05:44:03;;;;;;;;;;;28.80;56.90;;;;;;5122853;27;20345;-57
2021/06/22 05:46:30;;;;;;;;;;;28.80;56.90;;;;;;5156888;27;19931;-57
2021/06/22 05:48:57;;;;;;;;;;;28.80;56.80;;;;;;5143540;27;19977;-57
2021/06/22 05:51:25;;;;;;;;;;;28.80;56.80;;;;;;5148618;27;19968;-56
2021/06/22 05:53:52;;;;;;;;;;;28.80;56.80;;;;;;5145805;27;19984;-57
2021/06/22 05:56:19;;;;;;;;;;;28.80;56.90;;;;;;5147831;27;20417;-55
2021/06/22 05:58:46;;;;;;;;;;;28.80;56.80;;;;;;5154000;27;19923;-56
2021/06/22 06:01:13;;;;;;;;;;;28.80;56.90;;;;;;5154702;27;20390;-54
2021/06/22 06:03:40;;;;;;;;;;;28.80;56.90;;;;;;5149871;27;20282;-54
2021/06/22 06:06:07;;;;;;;;;;;28.80;57.50;;;;;;5142774;27;19923;-55
2021/06/22 06:08:34;;;;;;;;;;;28.80;56.90;;;;;;5155097;27;19924;-54
2021/06/22 06:11:02;;;;;;;;;;;28.80;56.90;;;;;;5136645;27;19930;-55
2021/06/22 06:13:33;;;;;;;;;;;28.80;56.90;;;;;;5153744;27;20443;-56
2021/06/22 06:16:00;;;;;;;;;;;28.70;56.90;;;;;;5142118;27;20006;-54
2021/06/22 06:18:27;;;;;;;;;;;28.80;57.00;;;;;;5154765;27;19975;-54
2021/06/22 06:20:55;;;;;;;;;;;28.70;57.00;;;;;;5154372;27;19994;-56
2021/06/22 06:23:24;;;;;;;;;;;28.70;57.00;;;;;;5149559;27;19963;-56
2021/06/22 06:25:51;;;;;;;;;;;28.80;57.10;;;;;;5138858;27;19923;-55
2021/06/22 06:28:21;;;;;;;;;;;28.80;57.00;;;;;;5133805;27;19948;-56
2021/06/22 06:30:48;;;;;;;;;;;28.80;57.00;;;;;;5137680;27;19966;-49
2021/06/22 06:33:16;;;;;;;;;;;28.80;57.00;;;;;;5154696;27;19963;-57
2021/06/22 06:35:44;;;;;;;;;;;28.80;57.00;;;;;;5136212;27;19931;-55
2021/06/22 06:38:11;;;;;;;;;;;28.80;56.90;;;;;;5138628;27;19972;-58
2021/06/22 06:40:38;;;;;;;;;;;28.80;56.90;;;;;;5154240;27;19946;-58
2021/06/22 06:43:05;;;;;;;;;;;28.90;56.80;;;;;;5142587;27;19958;-55
2021/06/22 06:45:33;;;;;;;;;;;28.90;56.80;;;;;;5150781;27;19966;-55
2021/06/22 06:48:00;;;;;;;;;;;28.90;56.70;;;;;;5153191;27;19923;-55
2021/06/22 06:50:26;;;;;;;;;;;28.90;56.70;;;;;;5154439;27;19966;-54
2021/06/22 06:52:53;;;;;;;;;;;28.90;56.50;;;;;;5145953;27;19924;-60
2021/06/22 06:55:35;;;;;;;;;;;28.90;56.50;;;;;;5145568;27;20352;-55
2021/06/22 06:58:03;;;;;;;;;;;29.00;56.50;;;;;;5153964;27;19962;-56
2021/06/22 07:00:32;;;;;;;;;;;29.00;56.40;;;;;;5127265;27;19969;-58
2021/06/22 07:02:59;;;;;;;;;;;29.00;56.40;;;;;;5139340;27;19963;-57
2021/06/22 07:05:26;;;;;;;;;;;29.00;56.50;;;;;;5144929;27;19930;-58
2021/06/22 07:07:54;;;;;;;;;;;29.00;56.40;;;;;;5136302;27;19923;-57
2021/06/22 07:10:22;;;;;;;;;;;29.10;56.50;;;;;;5152668;27;19988;-53
2021/06/22 07:12:49;;;;;;;;;;;29.10;56.40;;;;;;5152678;27;19958;-56
2021/06/22 07:15:16;;;;;;;;;;;29.10;56.30;;;;;;5153625;27;19930;-56
2021/06/22 07:17:43;;;;;;;;;;;29.10;56.30;;;;;;5152139;27;19975;-58
2021/06/22 07:20:11;;;;;;;;;;;29.10;56.20;;;;;;5133941;27;19924;-56
2021/06/22 07:22:38;;;;;;;;;;;29.10;56.20;;;;;;5152107;27;19923;-57
2021/06/22 07:25:05;;;;;;;;;;;29.10;56.30;;;;;;5153771;27;20920;-54
2021/06/22 07:27:32;;;;;;;;;;;29.10;56.20;;;;;;5153458;27;19927;-55
2021/06/22 07:29:59;;;;;;;;;;;29.10;56.10;;;;;;5153482;27;19965;-56
2021/06/22 07:32:26;;;;;;;;;;;29.20;56.20;;;;;;5154716;27;19944;-54
2021/06/22 07:34:53;;;;;;;;;;;29.20;56.10;;;;;;5135231;27;19927;-54
2021/06/22 07:37:20;;;;;;;;;;;29.20;56.10;;;;;;5153900;27;20014;-55
2021/06/22 07:39:47;;;;;;;;;;;29.20;56.00;;;;;;5136636;27;20349;-56
2021/06/22 07:42:14;;;;;;;;;;;29.20;55.90;;;;;;5137472;27;19972;-55
2021/06/22 07:44:41;;;;;;;;;;;29.20;55.90;;;;;;5144768;27;19928;-52
2021/06/22 07:47:08;;;;;;;;;;;29.20;55.90;;;;;;5138570;27;20379;-52
2021/06/22 07:49:35;;;;;;;;;;;29.20;56.00;;;;;;5148465;27;20337;-52
2021/06/22 07:52:02;;;;;;;;;;;29.20;56.00;;;;;;5152849;27;19923;-54
2021/06/22 07:54:29;;;;;;;;;;;29.10;55.90;;;;;;5153881;27;20359;-55
2021/06/22 07:56:56;;;;;;;;;;;29.20;56.00;;;;;;5152997;27;19962;-56
2021/06/22 07:59:23;;;;;;;;;;;29.20;56.00;;;;;;5145664;27;20291;-54
2021/06/22 08:01:50;;;;;;;;;;;29.20;56.00;;;;;;5145630;27;19930;-57
2021/06/22 08:04:17;;;;;;;;;;;29.20;56.00;;;;;;5134291;27;19923;-55
2021/06/22 08:06:44;;;;;;;;;;;29.20;56.00;;;;;;5148097;27;19927;-55
2021/06/22 08:09:11;;;;;;;;;;;29.20;56.00;;;;;;5137340;27;19946;-57
2021/06/22 08:11:39;;;;;;;;;;;29.20;56.00;;;;;;5140615;27;19923;-55
2021/06/22 08:14:06;;;;;;;;;;;29.20;56.00;;;;;;5152254;27;19963;-57
2021/06/22 08:16:33;;;;;;;;;;;29.20;56.00;;;;;;5152056;27;20015;-55
2021/06/22 08:19:00;;;;;;;;;;;29.20;56.00;;;;;;5154078;27;20363;-55
2021/06/22 08:21:27;;;;;;;;;;;29.20;55.90;;;;;;5155045;27;19972;-57
2021/06/22 08:23:54;;;;;;;;;;;29.20;55.90;;;;;;5135548;27;19927;-57
2021/06/22 08:26:22;;;;;;;;;;;29.20;55.80;;;;;;5134871;27;19927;-57
2021/06/22 08:28:48;;;;;;;;;;;29.30;55.80;;;;;;5154392;27;19963;-56
2021/06/22 08:31:18;;;;;;;;;;;29.30;55.80;;;;;;5137203;27;19924;-56
2021/06/22 08:33:46;;;;;;;;;;;29.30;55.70;;;;;;5153567;27;19930;-55
2021/06/22 08:36:14;;;;;;;;;;;29.30;55.80;;;;;;5136873;27;20447;-56
2021/06/22 08:38:41;;;;;;;;;;;29.20;55.80;;;;;;5150607;27;19981;-54
2021/06/22 08:41:08;;;;;;;;;;;29.20;55.80;;;;;;5149915;27;19923;-58
2021/06/22 08:43:36;;;;;;;;;;;29.20;55.90;;;;;;5139251;27;19967;-56
2021/06/22 08:46:04;;;;;;;;;;;29.20;55.90;;;;;;5146980;27;19923;-56
2021/06/22 08:48:31;;;;;;;;;;;29.20;56.00;;;;;;5120544;27;19934;-58
2021/06/22 08:50:58;;;;;;;;;;;29.20;55.90;;;;;;5145299;27;20383;-57
2021/06/22 08:53:25;;;;;;;;;;;29.20;55.80;;;;;;5151475;27;20373;-54
2021/06/22 08:55:52;;;;;;;;;;;29.20;55.80;;;;;;5151835;27;19972;-52
2021/06/22 08:58:19;;;;;;;;;;;29.20;55.80;;;;;;5151296;27;19955;-56
2021/06/22 09:00:48;;;;;;;;;;;29.20;55.80;;;;;;5152186;27;19923;-56
2021/06/22 09:03:17;;;;;;;;;;;29.20;55.80;;;;;;5151723;27;19946;-57
2021/06/22 09:05:45;;;;;;;;;;;29.20;55.90;;;;;;5150835;27;19946;-57
2021/06/22 09:08:23;;;;;;;;;;;29.20;55.90;;;;;;5151959;27;20295;-56
2021/06/22 09:10:53;;;;;;;;;;;29.20;56.00;;;;;;5155645;27;19923;-56
2021/06/22 09:13:22;;;;;;;;;;;29.10;56.00;;;;;;5152550;27;19963;-56
2021/06/22 09:15:51;;;;;;;;;;;29.10;56.10;;;;;;5148470;27;19934;-56
2021/06/22 09:18:21;;;;;;;;;;;29.10;56.10;;;;;;5140186;27;20019;-55
2021/06/22 09:20:48;;;;;;;;;;;29.10;56.20;;;;;;5154500;27;19944;-53
2021/06/22 09:23:17;;;;;;;;;;;29.00;56.20;;;;;;5140631;27;19923;-54
2021/06/22 09:25:45;;;;;;;;;;;29.00;56.30;;;;;;5155682;27;19959;-52
2021/06/22 09:28:13;;;;;;;;;;;29.00;56.30;;;;;;5154586;27;19976;-57
2021/06/22 09:30:40;;;;;;;;;;;29.00;56.40;;;;;;5139972;27;19927;-55
2021/06/22 09:33:21;;;;;;;;;;;29.00;56.40;;;;;;5155571;27;19923;-52
2021/06/22 09:35:50;;;;;;;;;;;29.00;56.40;;;;;;5137790;27;20283;-55
2021/06/22 09:38:17;;;;;;;;;;;28.90;56.40;;;;;;5157441;27;19968;-55
2021/06/22 09:40:44;;;;;;;;;;;28.90;56.50;;;;;;5157122;27;20327;-57
2021/06/22 09:43:11;;;;;;;;;;;28.90;56.50;;;;;;5156760;27;19924;-55
2021/06/22 09:45:38;;;;;;;;;;;28.90;56.50;;;;;;5154054;27;19997;-57
2021/06/22 09:48:05;;;;;;;;;;;28.90;56.50;;;;;;5139029;27;20470;-55
2021/06/22 09:50:39;;;;;;;;;;;28.90;56.60;;;;;;5153477;27;19963;-56
2021/06/22 09:53:22;;;;;;;;;;;28.90;56.60;;;;;;5154776;27;19923;-56
2021/06/22 09:55:49;;;;;;;;;;;28.90;56.60;;;;;;5153871;27;19924;-52
2021/06/22 09:58:16;;;;;;;;;;;28.90;56.70;;;;;;5155971;27;19923;-54
2021/06/22 10:00:43;;;;;;;;;;;28.90;56.70;;;;;;5156336;27;20271;-54
2021/06/22 10:03:10;;;;;;;;;;;28.90;56.70;;;;;;5143228;27;19924;-57
2021/06/22 10:05:50;;;;;;;;;;;28.90;57.00;;;;;;5138707;27;19924;-57
2021/06/22 10:08:17;;;;;;;;;;;28.90;56.80;;;;;;5140558;27;19965;-55
2021/06/22 10:10:44;;;;;;;;;;;28.90;56.80;;;;;;5151232;27;20280;-56
2021/06/22 10:13:30;;;;;;;;;;;28.80;56.70;;;;;;5155956;27;19972;-55
2021/06/22 10:16:16;;;;;;;;;;;28.80;56.80;;;;;;5156925;27;19931;-54
2021/06/22 10:18:43;;;;;;;;;;;28.80;56.80;;;;;;5153240;27;19930;-56
2021/06/22 10:21:10;;;;;;;;;;;28.80;56.80;;;;;;5140999;27;20354;-55
2021/06/22 10:23:37;;;;;;;;;;;28.80;57.40;;;;;;5150551;27;20006;-55
2021/06/22 10:26:04;;;;;;;;;;;28.80;56.80;;;;;;5155901;27;19987;-55
2021/06/22 10:28:33;;;;;;;;;;;28.80;56.90;;;;;;5152149;27;19980;-56
2021/06/22 10:31:00;;;;;;;;;;;28.80;56.80;;;;;;5145557;27;19924;-56
2021/06/22 10:33:27;;;;;;;;;;;28.80;56.90;;;;;;5138314;27;19929;-55
2021/06/22 10:35:54;;;;;;;;;;;28.80;56.90;;;;;;5145796;27;19948;-54
2021/06/22 10:38:22;;;;;;;;;;;28.80;56.90;;;;;;5127703;27;19980;-56
2021/06/22 10:40:56;;;;;;;;;;;28.80;56.90;;;;;;5146190;27;19972;-56
2021/06/22 10:43:39;;;;;;;;;;;28.80;56.90;;;;;;5149283;27;19928;-54
2021/06/22 10:46:13;;;;;;;;;;;28.80;56.90;;;;;;5128217;27;20013;-54
2021/06/22 10:48:44;;;;;;;;;;;28.80;56.90;;;;;;5147695;27;19923;-56
2021/06/22 10:51:31;;;;;;;;;;;28.80;56.90;;;;;;5142946;27;19923;-55
2021/06/22 10:53:59;;;;;;;;;;;28.80;56.90;;;;;;5153834;27;19955;-58
2021/06/22 10:56:27;;;;;;;;;;;28.80;56.90;;;;;;5146727;27;20014;-57
2021/06/22 10:59:14;;;;;;;;;;;28.80;56.90;;;;;;5143381;27;20495;-52
2021/06/22 11:01:50;;;;;;;;;;;28.80;56.90;;;;;;5145683;27;19923;-55
2021/06/22 11:04:18;;;;;;;;;;;28.80;56.90;;;;;;5146323;27;20014;-56
2021/06/22 11:07:03;;;;;;;;;;;28.80;56.90;;;;;;5152312;27;19926;-56
2021/06/22 11:09:30;;;;;;;;;;;28.80;56.90;;;;;;5154420;27;19926;-55
2021/06/22 11:12:21;;;;;;;;;;;28.80;56.90;;;;;;5154829;27;19974;-55
2021/06/22 11:15:07;;;;;;;;;;;28.80;56.90;;;;;;5140788;27;19923;-56
2021/06/22 11:17:54;;;;;;;;;;;28.80;56.90;;;;;;5153622;27;19959;-55
2021/06/22 11:20:21;;;;;;;;;;;28.80;56.90;;;;;;5153730;27;20021;-57
2021/06/22 11:23:04;;;;;;;;;;;28.90;56.90;;;;;;5154760;27;20053;-55
2021/06/22 11:25:48;;;;;;;;;;;28.80;56.90;;;;;;5154561;27;20021;-54
2021/06/22 11:28:15;;;;;;;;;;;28.80;56.90;;;;;;5153179;27;20402;-56
2021/06/22 11:30:48;;;;;;;;;;;28.90;56.90;;;;;;5152634;27;19923;-56
2021/06/22 11:33:32;;;;;;;;;;;28.80;56.80;;;;;;5150889;27;19927;-56
2021/06/22 11:36:17;;;;;;;;;;;28.80;56.80;;;;;;5136073;27;19968;-54
2021/06/22 11:39:04;;;;;;;;;;;28.80;56.80;;;;;;5135144;27;19986;-54
2021/06/22 11:41:31;;;;;;;;;;;28.80;56.80;;;;;;5135613;27;20408;-57
2021/06/22 11:44:07;;;;;;;;;;;28.80;56.80;;;;;;5134335;27;19949;-57
2021/06/22 11:46:35;;;;;;;;;;;28.80;56.80;;;;;;5134347;27;19974;-55
2021/06/22 11:49:03;;;;;;;;;;;28.90;56.80;;;;;;5155013;27;19977;-57
2021/06/22 11:51:49;;;;;;;;;;;28.80;56.80;;;;;;5155455;27;20379;-58
2021/06/22 11:54:16;;;;;;;;;;;28.80;56.80;;;;;;5152462;27;20010;-58
2021/06/22 11:56:44;;;;;;;;;;;28.80;56.80;;;;;;5116421;27;19924;-57
2021/06/22 11:59:11;;;;;;;;;;;28.80;56.80;;;;;;5152612;27;19978;-53
2021/06/22 12:01:45;;;;;;;;;;;28.80;56.80;;;;;;5151555;27;20386;-56
2021/06/22 12:04:13;;;;;;;;;;;28.80;56.80;;;;;;5134743;27;20034;-54
2021/06/22 12:06:40;;;;;;;;;;;28.90;56.80;;;;;;5152542;27;20479;-53
2021/06/22 12:09:21;;;;;;;;;;;28.90;56.80;;;;;;5120398;27;19923;-56
2021/06/22 12:11:50;;;;;;;;;;;28.80;56.80;;;;;;5151464;27;19923;-54
2021/06/22 12:14:18;;;;;;;;;;;28.90;56.80;;;;;;5152527;27;19923;-55
2021/06/22 12:16:47;;;;;;;;;;;28.80;56.80;;;;;;5151133;27;19934;-58
2021/06/22 12:19:18;;;;;;;;;;;28.80;56.80;;;;;;5153410;27;20075;-55
2021/06/22 12:21:48;;;;;;;;;;;28.80;56.80;;;;;;5151437;27;19959;-57
2021/06/22 12:24:19;;;;;;;;;;;28.90;56.80;;;;;;5152337;27;19980;-58
2021/06/22 12:26:49;;;;;;;;;;;28.90;56.80;;;;;;5141888;27;19927;-57
2021/06/22 12:29:22;;;;;;;;;;;28.90;56.80;;;;;;5147321;27;19976;-55
2021/06/22 12:31:57;;;;;;;;;;;28.90;56.80;;;;;;5151789;27;19968;-53
2021/06/22 12:34:25;;;;;;;;;;;28.90;56.80;;;;;;5151877;27;19970;-55
2021/06/22 12:36:53;;;;;;;;;;;28.90;56.80;;;;;;5152088;27;20298;-56
2021/06/22 12:39:21;;;;;;;;;;;28.90;56.80;;;;;;5150682;27;19923;-54
2021/06/22 12:41:48;;;;;;;;;;;28.90;56.80;;;;;;5152124;27;19923;-55
2021/06/22 12:44:25;;;;;;;;;;;28.90;56.80;;;;;;5149930;27;19927;-56
2021/06/22 12:46:52;;;;;;;;;;;28.90;56.80;;;;;;5143352;27;20002;-53
2021/06/22 12:49:26;;;;;;;;;;;28.90;56.80;;;;;;5153392;27;20296;-55
2021/06/22 12:51:57;;;;;;;;;;;28.90;56.80;;;;;;5151852;27;19962;-54
2021/06/22 12:54:28;;;;;;;;;;;28.90;56.80;;;;;;5150344;27;19966;-56
2021/06/22 12:57:05;;;;;;;;;;;28.90;56.80;;;;;;5132917;27;20284;-55
2021/06/22 13:00:01;;;;;;;;;;;28.90;56.80;;;;;;5129847;27;20335;-54
2021/06/22 13:02:29;;;;;;;;;;;28.90;56.80;;;;;;5119299;27;19958;-54
2021/06/22 13:04:56;;;;;;;;;;;28.90;56.70;;;;;;5152106;27;19961;-57
2021/06/22 13:07:25;;;;;;;;;;;28.90;56.70;;;;;;5151434;27;19923;-53
2021/06/22 13:09:54;;;;;;;;;;;28.90;56.70;;;;;;5151527;27;19930;-57
2021/06/22 13:12:23;;;;;;;;;;;28.90;56.70;;;;;;5151488;27;20417;-53
2021/06/22 13:14:52;;;;;;;;;;;28.90;56.70;;;;;;5152866;27;20418;-55
2021/06/22 13:17:23;;;;;;;;;;;28.90;56.70;;;;;;5146751;27;19976;-51
2021/06/22 13:19:52;;;;;;;;;;;28.90;56.70;;;;;;5136834;27;19981;-54
2021/06/22 13:22:20;;;;;;;;;;;28.90;56.70;;;;;;5135329;27;19923;-57
2021/06/22 13:24:52;;;;;;;;;;;28.90;56.60;;;;;;5118686;28;19924;-55
2021/06/22 13:27:30;;;;;;;;;;;28.90;56.60;;;;;;5135175;27;19923;-56
2021/06/22 13:30:12;;;;;;;;;;;28.90;56.70;;;;;;5134442;27;19971;-55
2021/06/22 13:32:48;;;;;;;;;;;28.90;56.60;;;;;;5138538;27;19946;-53
2021/06/22 13:35:18;;;;;;;;;;;28.90;56.60;;;;;;5151493;27;19923;-55
2021/06/22 13:38:05;;;;;;;;;;;28.90;56.60;;;;;;5152958;27;19946;-55
2021/06/22 13:40:47;;;;;;;;;;;28.90;56.60;;;;;;5151341;27;19927;-56
2021/06/22 13:43:22;;;;;;;;;;;28.90;56.60;;;;;;5134284;27;20391;-54
2021/06/22 13:45:54;;;;;;;;;;;28.90;56.60;;;;;;5149339;27;19981;-57
2021/06/22 13:48:22;;;;;;;;;;;28.90;56.50;;;;;;5151971;27;19968;-58
2021/06/22 13:50:50;;;;;;;;;;;28.90;56.60;;;;;;5150267;27;19958;-56
2021/06/22 13:53:21;;;;;;;;;;;28.90;56.60;;;;;;5153993;27;19978;-54
2021/06/22 13:55:49;;;;;;;;;;;28.90;56.60;;;;;;5151256;27;19923;-55
2021/06/22 13:58:19;;;;;;;;;;;28.90;56.60;;;;;;5153082;27;20402;-54
2021/06/22 14:00:48;;;;;;;;;;;28.90;56.50;;;;;;5156198;27;19931;-55
2021/06/22 14:03:16;;;;;;;;;;;28.90;56.50;;;;;;5154752;27;19966;-53
2021/06/22 14:05:43;;;;;;;;;;;28.90;56.50;;;;;;5153979;27;20386;-56
2021/06/22 14:08:11;;;;;;;;;;;28.90;56.50;;;;;;5139371;27;19930;-52
2021/06/22 14:10:40;;;;;;;;;;;28.90;56.50;;;;;;5156068;27;19931;-55
2021/06/22 14:13:07;;;;;;;;;;;28.90;56.50;;;;;;5153648;27;19963;-58
2021/06/22 14:15:35;;;;;;;;;;;28.90;56.50;;;;;;5137668;27;19923;-57
2021/06/22 14:18:03;;;;;;;;;;;28.90;56.50;;;;;;5155864;27;19962;-56
2021/06/22 14:20:30;;;;;;;;;;;28.90;56.50;;;;;;5155598;27;20366;-54
2021/06/22 14:22:57;;;;;;;;;;;29.00;56.50;;;;;;5156243;27;20030;-56
2021/06/22 14:25:25;;;;;;;;;;;29.00;56.50;;;;;;5157068;27;19923;-56
2021/06/22 14:27:53;;;;;;;;;;;29.00;56.50;;;;;;5150325;27;19931;-57
2021/06/22 14:30:23;;;;;;;;;;;29.00;56.50;;;;;;5155227;27;19923;-56